Time;durP1;ratioP1;P1;durP2;ratioP2;P2;SDS_P1;SDS_P2;PMS_P1;PMS_P2;Temp;Humidity;BMP_temperature;BMP_pressure;BME280_temperature;BME280_humidity;BME280_pressure;Samples;Min_cycle;Max_cycle;Signal;HPM_P1;HPM_P2
2022/01/10 00:00:01;;;;;;;46.30;22.65;;;;;;;;;;4983888;28;20269;-57
2022/01/10 00:02:26;;;;;;;38.40;18.88;;;;;;;;;;4979873;28;20876;-56
2022/01/10 00:04:51;;;;;;;30.58;15.73;;;;;;;;;;4987149;28;20183;-57
2022/01/10 00:07:17;;;;;;;30.50;17.00;;;;;;;;;;4997986;28;20709;-57
2022/01/10 00:09:42;;;;;;;30.35;16.42;;;;;;;;;;5000949;28;21016;-57
2022/01/10 00:12:07;;;;;;;34.88;16.55;;;;;;;;;;4993715;28;20188;-57
2022/01/10 00:14:33;;;;;;;33.83;15.90;;;;;;;;;;4995834;28;20661;-57
2022/01/10 00:16:58;;;;;;;30.30;16.73;;;;;;;;;;4996686;28;20183;-57
2022/01/10 00:19:24;;;;;;;30.45;15.48;;;;;;;;;;5000955;28;20187;-57
2022/01/10 00:21:49;;;;;;;31.67;15.57;;;;;;;;;;4997947;28;20735;-57
2022/01/10 00:24:15;;;;;;;33.33;16.02;;;;;;;;;;5000066;28;20860;-57
2022/01/10 00:26:40;;;;;;;30.98;14.73;;;;;;;;;;5005091;28;20561;-57
2022/01/10 00:29:05;;;;;;;32.95;16.23;;;;;;;;;;5007410;28;20187;-57
2022/01/10 00:31:30;;;;;;;33.65;15.38;;;;;;;;;;5005519;28;20637;-57
2022/01/10 00:33:56;;;;;;;32.80;15.95;;;;;;;;;;4998484;28;20175;-57
2022/01/10 00:36:21;;;;;;;30.52;15.10;;;;;;;;;;4994321;28;20645;-57
2022/01/10 00:38:46;;;;;;;31.88;14.88;;;;;;;;;;5005542;28;20179;-58
2022/01/10 00:41:12;;;;;;;28.33;14.18;;;;;;;;;;4984517;28;20188;-57
2022/01/10 00:43:41;;;;;;;23.88;13.48;;;;;;;;;;4979042;28;20191;-58
2022/01/10 00:46:07;;;;;;;26.85;14.60;;;;;;;;;;4999705;28;20194;-57
2022/01/10 00:48:32;;;;;;;26.88;13.88;;;;;;;;;;5005956;28;20187;-57
2022/01/10 00:50:57;;;;;;;28.20;14.77;;;;;;;;;;4999705;28;20216;-57
2022/01/10 00:53:25;;;;;;;29.17;14.00;;;;;;;;;;4995084;28;20199;-57
2022/01/10 00:55:51;;;;;;;31.85;16.27;;;;;;;;;;4998409;28;20187;-57
2022/01/10 00:58:16;;;;;;;28.00;14.25;;;;;;;;;;4997768;28;20334;-57
2022/01/10 01:00:41;;;;;;;29.25;14.75;;;;;;;;;;4992404;28;20783;-57
2022/01/10 01:03:07;;;;;;;29.58;15.30;;;;;;;;;;4997139;28;20215;-57
2022/01/10 01:05:38;;;;;;;31.98;14.27;;;;;;;;;;4998593;28;20187;-57
2022/01/10 01:08:06;;;;;;;30.17;15.20;;;;;;;;;;5002984;28;20237;-57
2022/01/10 01:13:19;;;;;;;30.15;14.70;;;;;;;;;;4994743;28;20206;-57
2022/01/10 01:26:24;;;;;;;24.02;13.82;;;;;;;;;;4997562;28;20604;-57
2022/01/10 01:28:50;;;;;;;23.58;13.38;;;;;;;;;;4999928;28;20183;-57
2022/01/10 01:31:15;;;;;;;22.60;13.32;;;;;;;;;;4998410;28;20196;-57
2022/01/10 01:33:40;;;;;;;19.63;11.90;;;;;;;;;;4991504;28;20179;-57
2022/01/10 01:36:07;;;;;;;22.83;13.68;;;;;;;;;;5007823;28;20199;-57
2022/01/10 01:38:33;;;;;;;22.10;13.52;;;;;;;;;;5007823;28;20178;-57
2022/01/10 01:41:12;;;;;;;29.55;13.88;;;;;;;;;;5000557;28;20262;-57
2022/01/10 01:43:38;;;;;;;27.60;14.27;;;;;;;;;;5003299;28;20167;-56
2022/01/10 01:46:03;;;;;;;29.98;15.27;;;;;;;;;;4996729;28;20261;-57
2022/01/10 01:48:28;;;;;;;28.92;14.73;;;;;;;;;;4998411;28;20194;-56
2022/01/10 01:50:53;;;;;;;30.88;15.23;;;;;;;;;;5002686;28;20261;-57
2022/01/10 01:53:19;;;;;;;28.98;15.65;;;;;;;;;;4994721;28;20200;-57
2022/01/10 01:55:45;;;;;;;25.95;15.25;;;;;;;;;;4999046;28;20211;-56
2022/01/10 01:58:10;;;;;;;26.23;14.55;;;;;;;;;;4993671;28;20575;-57
2022/01/10 02:00:35;;;;;;;24.63;13.73;;;;;;;;;;5000767;28;20569;-57
2022/01/10 02:03:01;;;;;;;21.90;13.10;;;;;;;;;;4997713;28;20294;-57
2022/01/10 02:05:26;;;;;;;28.50;14.38;;;;;;;;;;4982874;28;20748;-57
2022/01/10 02:07:52;;;;;;;29.80;16.85;;;;;;;;;;4996688;28;20816;-57
2022/01/10 02:10:17;;;;;;;30.75;16.80;;;;;;;;;;4998886;28;20592;-56
2022/01/10 02:12:42;;;;;;;33.53;16.52;;;;;;;;;;5000730;28;20176;-57
2022/01/10 02:15:08;;;;;;;32.35;17.65;;;;;;;;;;4990702;28;20180;-57
2022/01/10 02:17:36;;;;;;;33.40;18.25;;;;;;;;;;4996502;28;20175;-57
2022/01/10 02:20:03;;;;;;;34.70;18.02;;;;;;;;;;5003883;28;20608;-57
2022/01/10 02:22:28;;;;;;;34.95;17.85;;;;;;;;;;4995747;28;20648;-57
2022/01/10 02:24:53;;;;;;;32.15;17.85;;;;;;;;;;4999834;28;20267;-57
2022/01/10 02:27:22;;;;;;;35.65;17.75;;;;;;;;;;4995800;28;20186;-57
2022/01/10 02:29:48;;;;;;;35.10;18.98;;;;;;;;;;4997783;28;20199;-57
2022/01/10 02:32:13;;;;;;;32.60;17.73;;;;;;;;;;4996703;28;20180;-57
2022/01/10 02:34:38;;;;;;;30.17;17.15;;;;;;;;;;5006580;28;20199;-57
2022/01/10 02:37:04;;;;;;;31.90;18.25;;;;;;;;;;4997795;28;20179;-56
2022/01/10 02:39:29;;;;;;;34.85;19.20;;;;;;;;;;4995270;28;20254;-57
2022/01/10 02:41:54;;;;;;;33.72;18.38;;;;;;;;;;4998974;28;20193;-57
2022/01/10 02:44:20;;;;;;;33.45;18.77;;;;;;;;;;4993090;28;20664;-57
2022/01/10 02:46:46;;;;;;;30.08;16.27;;;;;;;;;;5001514;28;20183;-57
2022/01/10 02:49:12;;;;;;;33.42;17.30;;;;;;;;;;4995328;28;21009;-57
2022/01/10 02:51:38;;;;;;;35.90;18.13;;;;;;;;;;4997620;28;20194;-57
2022/01/10 02:54:03;;;;;;;35.45;18.35;;;;;;;;;;5001288;28;20196;-58
2022/01/10 02:56:28;;;;;;;34.03;17.58;;;;;;;;;;4989830;28;20191;-57
2022/01/10 02:58:54;;;;;;;38.97;18.95;;;;;;;;;;4994335;28;20535;-57
2022/01/10 03:01:19;;;;;;;36.47;19.45;;;;;;;;;;5001117;28;20245;-57
2022/01/10 03:03:44;;;;;;;37.78;18.80;;;;;;;;;;5000061;28;20256;-57
2022/01/10 03:06:10;;;;;;;36.83;18.05;;;;;;;;;;4998618;28;20676;-57
2022/01/10 03:08:36;;;;;;;33.10;17.38;;;;;;;;;;4987836;28;20578;-57
2022/01/10 03:11:01;;;;;;;33.63;18.25;;;;;;;;;;4995930;28;20203;-57
2022/01/10 03:13:27;;;;;;;39.30;19.92;;;;;;;;;;5001697;28;20321;-57
2022/01/10 03:15:52;;;;;;;35.97;19.27;;;;;;;;;;5002468;28;20190;-58
2022/01/10 03:18:17;;;;;;;41.38;20.52;;;;;;;;;;4996395;28;20176;-57
2022/01/10 03:20:43;;;;;;;38.13;20.48;;;;;;;;;;5006558;28;20183;-57
2022/01/10 03:23:09;;;;;;;43.25;20.60;;;;;;;;;;5002759;28;20205;-57
2022/01/10 03:25:34;;;;;;;40.40;21.02;;;;;;;;;;4999025;28;20723;-57
2022/01/10 03:27:59;;;;;;;35.75;20.13;;;;;;;;;;4995059;28;20188;-57
2022/01/10 03:30:26;;;;;;;40.72;19.38;;;;;;;;;;5000461;28;20198;-57
2022/01/10 03:32:51;;;;;;;38.88;20.50;;;;;;;;;;5000341;28;20315;-58
2022/01/10 03:35:17;;;;;;;40.20;21.35;;;;;;;;;;5003695;28;20356;-57
2022/01/10 03:37:42;;;;;;;35.30;19.50;;;;;;;;;;5002829;28;20190;-57
2022/01/10 03:40:08;;;;;;;48.15;25.42;;;;;;;;;;5008389;28;20186;-58
2022/01/10 03:42:34;;;;;;;39.00;20.75;;;;;;;;;;4997020;28;20183;-58
2022/01/10 03:44:59;;;;;;;39.10;21.65;;;;;;;;;;4999245;28;20184;-57
2022/01/10 03:47:25;;;;;;;41.75;21.25;;;;;;;;;;4999368;28;20190;-57
2022/01/10 03:49:51;;;;;;;38.65;19.65;;;;;;;;;;5001716;28;20203;-57
2022/01/10 03:52:16;;;;;;;44.90;22.50;;;;;;;;;;4998868;28;20190;-57
2022/01/10 03:54:41;;;;;;;41.85;21.58;;;;;;;;;;5000540;28;20195;-57
2022/01/10 03:57:07;;;;;;;45.85;22.83;;;;;;;;;;5000124;28;20176;-57
2022/01/10 03:59:33;;;;;;;49.08;23.85;;;;;;;;;;4993865;28;20628;-58
2022/01/10 04:01:58;;;;;;;46.17;22.33;;;;;;;;;;5003962;28;20238;-57
2022/01/10 04:04:24;;;;;;;42.88;22.02;;;;;;;;;;4991489;28;20641;-58
2022/01/10 04:06:49;;;;;;;43.92;23.35;;;;;;;;;;4995520;28;20188;-56
2022/01/10 04:09:14;;;;;;;48.58;22.73;;;;;;;;;;5000719;28;20187;-57
2022/01/10 04:11:40;;;;;;;45.65;24.13;;;;;;;;;;5002983;28;20929;-57
2022/01/10 04:14:05;;;;;;;55.00;25.65;;;;;;;;;;4999052;28;21027;-56
2022/01/10 04:16:30;;;;;;;51.25;25.88;;;;;;;;;;5001596;28;20185;-57
2022/01/10 04:18:56;;;;;;;52.40;25.90;;;;;;;;;;4993895;28;20222;-57
2022/01/10 04:21:21;;;;;;;50.28;25.92;;;;;;;;;;4998521;28;20588;-56
2022/01/10 04:23:46;;;;;;;54.30;26.38;;;;;;;;;;5001351;28;20187;-56
2022/01/10 04:26:11;;;;;;;40.95;22.50;;;;;;;;;;5003537;28;20191;-57
2022/01/10 04:28:37;;;;;;;47.40;25.13;;;;;;;;;;5007406;28;20649;-56
2022/01/10 04:31:04;;;;;;;49.10;26.75;;;;;;;;;;4997999;28;20200;-57
2022/01/10 04:33:30;;;;;;;56.47;28.02;;;;;;;;;;4979815;28;20191;-57
2022/01/10 04:35:55;;;;;;;52.22;26.77;;;;;;;;;;4979710;28;20188;-57
2022/01/10 04:38:21;;;;;;;53.85;27.00;;;;;;;;;;4984175;28;20645;-57
2022/01/10 04:40:46;;;;;;;46.50;24.25;;;;;;;;;;5003164;28;20190;-57
2022/01/10 04:43:11;;;;;;;43.22;22.60;;;;;;;;;;5000644;28;20660;-57
2022/01/10 04:45:37;;;;;;;44.65;23.20;;;;;;;;;;5001309;28;21031;-57
2022/01/10 04:48:03;;;;;;;42.83;23.35;;;;;;;;;;5001459;28;20543;-57
2022/01/10 04:53:02;;;;;;;49.05;25.50;;;;;;;;;;4993562;28;20205;-57
2022/01/10 04:55:27;;;;;;;42.20;24.52;;;;;;;;;;4997377;28;20178;-57
2022/01/10 04:57:53;;;;;;;50.88;28.00;;;;;;;;;;4999482;28;20712;-56
2022/01/10 05:00:18;;;;;;;49.33;28.35;;;;;;;;;;5002817;28;20673;-57
2022/01/10 05:02:45;;;;;;;44.03;26.33;;;;;;;;;;5001483;28;20198;-56
2022/01/10 05:05:10;;;;;;;45.55;25.48;;;;;;;;;;4995087;28;20183;-57
2022/01/10 05:07:35;;;;;;;44.60;25.85;;;;;;;;;;5008802;28;20214;-57
2022/01/10 05:10:00;;;;;;;47.28;27.90;;;;;;;;;;4989201;28;20199;-57
2022/01/10 05:12:27;;;;;;;48.38;28.52;;;;;;;;;;4995223;28;20179;-57
2022/01/10 05:14:53;;;;;;;49.28;27.50;;;;;;;;;;4986416;28;20195;-57
2022/01/10 05:17:20;;;;;;;50.42;28.38;;;;;;;;;;4978576;28;20187;-57
2022/01/10 05:19:45;;;;;;;34.30;20.67;;;;;;;;;;5000424;28;20195;-57
2022/01/10 05:22:10;;;;;;;42.55;25.75;;;;;;;;;;4999399;28;20569;-57
2022/01/10 05:24:36;;;;;;;43.83;25.95;;;;;;;;;;4998361;28;20194;-57
2022/01/10 05:27:01;;;;;;;31.73;18.95;;;;;;;;;;5000736;28;20272;-57
2022/01/10 05:29:26;;;;;;;39.10;22.98;;;;;;;;;;4994054;28;20189;-57
2022/01/10 05:31:52;;;;;;;38.58;21.83;;;;;;;;;;4993528;28;20267;-57
2022/01/10 05:34:17;;;;;;;38.17;21.00;;;;;;;;;;4997653;28;20270;-57
2022/01/10 05:36:42;;;;;;;24.05;14.27;;;;;;;;;;4997785;28;20656;-57
2022/01/10 05:39:08;;;;;;;23.90;14.40;;;;;;;;;;4997788;28;20179;-56
2022/01/10 05:41:34;;;;;;;29.30;16.23;;;;;;;;;;5003074;28;20244;-57
2022/01/10 05:43:59;;;;;;;31.77;18.70;;;;;;;;;;4992658;28;20225;-56
2022/01/10 05:46:24;;;;;;;31.88;19.25;;;;;;;;;;4999412;28;20305;-57
2022/01/10 05:48:52;;;;;;;23.13;14.85;;;;;;;;;;4993514;28;20179;-57
2022/01/10 05:51:19;;;;;;;22.63;14.38;;;;;;;;;;5000428;28;20201;-56
2022/01/10 05:53:45;;;;;;;27.33;13.50;;;;;;;;;;4997560;28;20206;-56
2022/01/10 05:56:10;;;;;;;19.17;12.35;;;;;;;;;;4997045;28;20180;-57
2022/01/10 05:58:35;;;;;;;21.58;13.55;;;;;;;;;;4977152;28;20179;-57
2022/01/10 06:01:00;;;;;;;18.92;12.07;;;;;;;;;;4978745;28;20176;-57
2022/01/10 06:03:26;;;;;;;18.42;12.02;;;;;;;;;;4987540;28;20672;-57
2022/01/10 06:05:51;;;;;;;14.60;9.98;;;;;;;;;;4992509;28;20250;-57
2022/01/10 06:08:16;;;;;;;14.20;10.07;;;;;;;;;;4995194;28;20179;-57
2022/01/10 06:10:42;;;;;;;28.70;17.52;;;;;;;;;;4997310;28;20840;-57
2022/01/10 06:13:07;;;;;;;30.48;20.45;;;;;;;;;;5003119;28;20175;-57
2022/01/10 06:15:33;;;;;;;32.70;21.88;;;;;;;;;;5000486;28;20495;-57
2022/01/10 06:17:58;;;;;;;24.88;15.45;;;;;;;;;;4985764;28;20979;-57
2022/01/10 06:20:24;;;;;;;18.58;11.65;;;;;;;;;;4996483;28;20226;-58
2022/01/10 06:22:49;;;;;;;22.52;12.88;;;;;;;;;;4999079;28;20715;-57
2022/01/10 06:25:16;;;;;;;25.08;16.52;;;;;;;;;;5000575;28;20318;-57
2022/01/10 06:27:42;;;;;;;40.05;26.65;;;;;;;;;;4998673;28;20190;-57
2022/01/10 06:30:07;;;;;;;47.92;29.10;;;;;;;;;;5000562;28;20198;-58
2022/01/10 06:32:33;;;;;;;48.28;29.00;;;;;;;;;;4994448;28;20733;-57
2022/01/10 06:34:58;;;;;;;45.70;27.42;;;;;;;;;;5000419;28;20198;-57
2022/01/10 06:37:23;;;;;;;42.30;23.65;;;;;;;;;;4993699;28;20179;-58
2022/01/10 06:39:49;;;;;;;49.67;26.83;;;;;;;;;;4997613;28;21260;-57
2022/01/10 06:42:14;;;;;;;40.08;25.15;;;;;;;;;;4997360;28;20679;-57
2022/01/10 06:44:40;;;;;;;40.78;24.55;;;;;;;;;;5002130;28;20198;-57
2022/01/10 06:47:05;;;;;;;32.63;21.27;;;;;;;;;;4997263;28;20561;-57
2022/01/10 06:49:30;;;;;;;26.60;17.10;;;;;;;;;;5001484;28;20179;-57
2022/01/10 06:51:55;;;;;;;40.45;25.33;;;;;;;;;;5003234;28;20178;-57
2022/01/10 06:54:21;;;;;;;34.15;22.45;;;;;;;;;;4991402;28;20206;-58
2022/01/10 06:56:46;;;;;;;41.00;25.63;;;;;;;;;;4997017;28;20203;-57
2022/01/10 06:59:11;;;;;;;45.75;29.33;;;;;;;;;;4997746;28;20184;-57
2022/01/10 07:01:37;;;;;;;40.05;26.58;;;;;;;;;;4979973;28;20179;-57
2022/01/10 07:04:02;;;;;;;45.33;29.75;;;;;;;;;;4981914;28;20736;-57
2022/01/10 07:06:27;;;;;;;44.70;29.10;;;;;;;;;;4996773;28;20175;-57
2022/01/10 07:08:53;;;;;;;47.30;31.42;;;;;;;;;;5003484;28;20175;-57
2022/01/10 07:11:18;;;;;;;54.45;37.08;;;;;;;;;;4998008;28;20203;-57
2022/01/10 07:13:43;;;;;;;59.35;37.72;;;;;;;;;;5003415;28;20182;-57
2022/01/10 07:16:09;;;;;;;53.65;35.03;;;;;;;;;;5002767;28;20184;-56
2022/01/10 07:18:34;;;;;;;39.30;25.48;;;;;;;;;;5005474;28;20183;-57
2022/01/10 07:20:59;;;;;;;39.90;26.35;;;;;;;;;;4988272;28;20179;-57
2022/01/10 07:23:24;;;;;;;28.15;18.50;;;;;;;;;;4980654;28;20183;-57
2022/01/10 07:25:50;;;;;;;36.35;23.70;;;;;;;;;;4982230;28;20222;-56
2022/01/10 07:28:16;;;;;;;47.83;28.88;;;;;;;;;;5005361;28;20257;-57
2022/01/10 07:30:41;;;;;;;50.47;29.27;;;;;;;;;;4994878;28;20199;-57
2022/01/10 07:33:06;;;;;;;41.00;27.63;;;;;;;;;;5004870;28;20176;-57
2022/01/10 07:35:31;;;;;;;26.33;17.13;;;;;;;;;;5001628;28;20210;-57
2022/01/10 07:37:57;;;;;;;35.50;21.15;;;;;;;;;;5000329;28;20168;-57
2022/01/10 07:40:23;;;;;;;37.55;24.27;;;;;;;;;;4993490;28;20176;-56
2022/01/10 07:42:48;;;;;;;25.90;15.52;;;;;;;;;;4996394;28;20265;-57
2022/01/10 07:45:13;;;;;;;23.85;15.02;;;;;;;;;;4998670;28;21123;-57
2022/01/10 07:47:38;;;;;;;28.02;16.38;;;;;;;;;;5000948;28;20179;-57
2022/01/10 07:50:05;;;;;;;28.25;16.05;;;;;;;;;;4999775;28;20199;-57
2022/01/10 07:52:30;;;;;;;26.95;16.10;;;;;;;;;;5000931;28;20179;-57
2022/01/10 07:54:55;;;;;;;27.90;16.27;;;;;;;;;;5003785;28;20683;-57
2022/01/10 07:57:20;;;;;;;31.52;19.52;;;;;;;;;;4993473;28;20180;-57
2022/01/10 07:59:46;;;;;;;30.17;19.65;;;;;;;;;;4995614;28;20179;-56
2022/01/10 08:02:11;;;;;;;38.33;23.67;;;;;;;;;;4998683;28;20273;-56
2022/01/10 08:04:36;;;;;;;34.45;23.10;;;;;;;;;;4998361;28;20183;-56
2022/01/10 08:07:03;;;;;;;30.48;18.45;;;;;;;;;;5000064;28;20266;-56
2022/01/10 08:09:28;;;;;;;26.35;18.55;;;;;;;;;;5001756;28;20215;-57
2022/01/10 08:11:59;;;;;;;26.27;17.45;;;;;;;;;;5006623;28;20237;-58
2022/01/10 08:14:24;;;;;;;22.77;14.85;;;;;;;;;;4998339;28;20493;-57
2022/01/10 08:16:49;;;;;;;23.45;15.07;;;;;;;;;;4995197;28;20638;-57
2022/01/10 08:19:15;;;;;;;24.05;15.27;;;;;;;;;;5002091;28;20211;-58
2022/01/10 08:21:40;;;;;;;25.48;16.33;;;;;;;;;;5002746;28;20567;-57
2022/01/10 08:24:05;;;;;;;23.25;15.90;;;;;;;;;;4995767;28;20215;-57
2022/01/10 08:26:31;;;;;;;24.15;16.42;;;;;;;;;;4979190;28;20191;-57
2022/01/10 08:28:56;;;;;;;28.50;16.50;;;;;;;;;;4981313;28;20188;-57
2022/01/10 08:31:21;;;;;;;22.33;14.82;;;;;;;;;;5002994;28;20207;-57
2022/01/10 08:33:48;;;;;;;24.50;15.32;;;;;;;;;;4995590;28;20266;-57
2022/01/10 08:36:13;;;;;;;24.85;14.25;;;;;;;;;;4992639;28;20199;-57
2022/01/10 08:38:39;;;;;;;24.35;14.38;;;;;;;;;;5001612;28;20179;-57
2022/01/10 08:41:04;;;;;;;22.65;14.70;;;;;;;;;;4997612;28;20194;-57
2022/01/10 08:43:29;;;;;;;20.52;13.07;;;;;;;;;;5001268;28;20645;-56
2022/01/10 08:45:55;;;;;;;20.00;12.55;;;;;;;;;;5000388;28;20183;-57
2022/01/10 08:48:20;;;;;;;22.08;14.23;;;;;;;;;;4998640;28;20182;-57
2022/01/10 08:50:46;;;;;;;22.85;14.88;;;;;;;;;;5001827;28;20210;-58
2022/01/10 08:53:11;;;;;;;18.88;12.30;;;;;;;;;;4993807;28;20226;-58
2022/01/10 08:55:37;;;;;;;24.15;15.20;;;;;;;;;;5002111;28;20171;-58
2022/01/10 08:58:02;;;;;;;19.13;13.70;;;;;;;;;;4995297;28;20266;-57
2022/01/10 09:00:28;;;;;;;22.80;15.93;;;;;;;;;;5001597;28;20226;-58
2022/01/10 09:02:53;;;;;;;23.10;15.85;;;;;;;;;;4997913;28;20185;-58
2022/01/10 09:05:18;;;;;;;17.50;11.63;;;;;;;;;;4994967;28;20226;-57
2022/01/10 09:07:44;;;;;;;35.55;21.60;;;;;;;;;;4977501;28;20210;-57
2022/01/10 09:10:09;;;;;;;26.48;16.52;;;;;;;;;;4978441;28;20196;-58
2022/01/10 09:12:34;;;;;;;22.77;15.38;;;;;;;;;;4986948;28;20179;-58
2022/01/10 09:15:00;;;;;;;25.70;16.40;;;;;;;;;;4995249;28;20184;-57
2022/01/10 09:17:25;;;;;;;16.02;11.02;;;;;;;;;;4999034;28;20182;-57
2022/01/10 09:19:50;;;;;;;23.05;14.73;;;;;;;;;;5004179;28;20689;-58
2022/01/10 09:22:15;;;;;;;24.70;15.40;;;;;;;;;;5000158;28;20265;-58
2022/01/10 09:24:46;;;;;;;33.88;19.48;;;;;;;;;;4999630;28;20187;-58
2022/01/10 09:27:13;;;;;;;19.15;12.98;;;;;;;;;;4989756;28;20265;-57
2022/01/10 09:29:40;;;;;;;19.15;12.35;;;;;;;;;;4977881;28;20751;-57
2022/01/10 09:32:05;;;;;;;21.30;13.57;;;;;;;;;;4979994;28;20231;-57
2022/01/10 09:34:30;;;;;;;19.48;12.07;;;;;;;;;;5000356;28;20676;-57
2022/01/10 09:36:56;;;;;;;18.60;13.20;;;;;;;;;;5001225;28;21056;-57
2022/01/10 09:39:21;;;;;;;21.88;13.65;;;;;;;;;;4999037;28;20183;-57
2022/01/10 09:41:47;;;;;;;13.57;10.30;;;;;;;;;;4998152;28;20274;-57
2022/01/10 09:44:12;;;;;;;25.83;14.90;;;;;;;;;;5003156;28;20191;-57
2022/01/10 09:46:38;;;;;;;23.05;15.48;;;;;;;;;;4997014;28;20179;-57
2022/01/10 09:49:03;;;;;;;18.85;13.82;;;;;;;;;;4997263;28;20190;-56
2022/01/10 09:51:29;;;;;;;19.15;13.30;;;;;;;;;;4997546;28;20257;-57
2022/01/10 09:53:55;;;;;;;23.58;16.25;;;;;;;;;;5001886;28;20225;-58
2022/01/10 09:56:21;;;;;;;22.52;15.55;;;;;;;;;;4995616;28;20246;-58
2022/01/10 09:58:46;;;;;;;24.88;17.02;;;;;;;;;;5002806;28;20187;-57
2022/01/10 10:01:13;;;;;;;18.38;14.55;;;;;;;;;;4998886;28;20191;-57
2022/01/10 10:03:38;;;;;;;16.10;12.52;;;;;;;;;;4995500;28;20274;-57
2022/01/10 10:06:05;;;;;;;27.52;18.38;;;;;;;;;;4994882;28;20358;-57
2022/01/10 10:08:30;;;;;;;17.63;11.93;;;;;;;;;;4990358;28;20631;-57
2022/01/10 10:10:55;;;;;;;21.40;13.25;;;;;;;;;;4995893;28;20205;-57
2022/01/10 10:13:21;;;;;;;16.23;12.73;;;;;;;;;;4997888;28;20187;-57
2022/01/10 10:15:46;;;;;;;15.60;11.10;;;;;;;;;;5004084;28;20183;-58
2022/01/10 10:18:12;;;;;;;15.75;11.48;;;;;;;;;;4997091;28;20189;-57
2022/01/10 10:20:39;;;;;;;18.48;12.15;;;;;;;;;;4997726;28;20180;-58
2022/01/10 10:23:05;;;;;;;15.40;10.95;;;;;;;;;;4997798;28;20641;-57
2022/01/10 10:25:33;;;;;;;24.25;14.82;;;;;;;;;;5001302;28;20191;-57
2022/01/10 10:27:58;;;;;;;21.27;14.70;;;;;;;;;;4998323;28;20198;-57
2022/01/10 10:30:27;;;;;;;16.83;12.52;;;;;;;;;;4987391;28;20472;-57
2022/01/10 10:33:08;;;;;;;16.92;12.55;;;;;;;;;;4996496;28;20225;-58
2022/01/10 10:35:34;;;;;;;16.67;12.02;;;;;;;;;;4999446;28;20225;-58
2022/01/10 10:38:01;;;;;;;15.25;10.25;;;;;;;;;;4995524;28;20285;-57
2022/01/10 10:40:27;;;;;;;16.25;11.82;;;;;;;;;;5000650;28;20273;-57
2022/01/10 10:42:56;;;;;;;19.02;12.93;;;;;;;;;;4993750;28;20846;-57
2022/01/10 10:45:24;;;;;;;14.10;10.85;;;;;;;;;;5005676;28;20178;-58
2022/01/10 10:47:50;;;;;;;15.98;12.23;;;;;;;;;;4994130;28;20175;-57
2022/01/10 10:50:15;;;;;;;19.20;12.48;;;;;;;;;;4994830;28;20588;-57
2022/01/10 10:52:41;;;;;;;22.52;14.65;;;;;;;;;;4976819;28;20211;-56
2022/01/10 10:55:07;;;;;;;19.85;12.98;;;;;;;;;;4977710;28;20172;-57
2022/01/10 10:57:32;;;;;;;11.40;8.52;;;;;;;;;;4984133;28;20194;-57
2022/01/10 11:00:01;;;;;;;13.75;10.82;;;;;;;;;;4997862;28;20641;-57
2022/01/10 11:02:27;;;;;;;13.82;10.27;;;;;;;;;;5003034;28;20198;-57
2022/01/10 11:04:52;;;;;;;12.23;8.50;;;;;;;;;;5006279;28;20186;-57
2022/01/10 11:07:21;;;;;;;10.75;8.95;;;;;;;;;;5005416;28;20213;-57
2022/01/10 11:09:46;;;;;;;9.60;7.97;;;;;;;;;;4996484;28;20206;-58
2022/01/10 11:12:13;;;;;;;11.52;8.00;;;;;;;;;;4988558;28;20183;-57
2022/01/10 11:14:40;;;;;;;11.73;8.55;;;;;;;;;;4995913;28;20183;-57
2022/01/10 11:17:05;;;;;;;15.13;10.07;;;;;;;;;;4997689;28;20183;-57
2022/01/10 11:19:31;;;;;;;12.50;9.43;;;;;;;;;;5004871;28;20171;-57
2022/01/10 11:22:02;;;;;;;10.68;8.80;;;;;;;;;;4989845;28;20183;-57
2022/01/10 11:24:43;;;;;;;11.90;8.65;;;;;;;;;;5000007;28;20179;-57
2022/01/10 11:27:27;;;;;;;13.18;9.73;;;;;;;;;;5001281;28;20179;-57
2022/01/10 11:29:55;;;;;;;19.58;14.07;;;;;;;;;;5005981;28;20320;-57
2022/01/10 11:32:20;;;;;;;18.90;13.45;;;;;;;;;;4993298;28;20231;-65
2022/01/10 11:34:47;;;;;;;22.08;15.18;;;;;;;;;;4979495;28;20200;-58
2022/01/10 11:37:12;;;;;;;70.03;31.55;;;;;;;;;;4980644;28;20176;-57
2022/01/10 11:39:37;;;;;;;52.13;25.98;;;;;;;;;;4989789;28;20193;-57
2022/01/10 11:42:18;;;;;;;45.35;22.83;;;;;;;;;;5001885;28;20215;-58
2022/01/10 11:45:03;;;;;;;42.42;25.67;;;;;;;;;;5003916;28;20793;-56
2022/01/10 11:47:29;;;;;;;31.58;19.02;;;;;;;;;;5004443;28;20793;-57
2022/01/10 11:50:14;;;;;;;34.55;23.05;;;;;;;;;;5002399;28;20207;-57
2022/01/10 11:52:39;;;;;;;21.45;14.82;;;;;;;;;;4997164;28;20622;-57
2022/01/10 11:55:07;;;;;;;24.42;16.23;;;;;;;;;;4997346;28;20178;-57
2022/01/10 11:57:34;;;;;;;25.10;15.93;;;;;;;;;;4999858;28;20183;-57
2022/01/10 12:00:08;;;;;;;24.02;14.52;;;;;;;;;;5001962;28;20183;-57
2022/01/10 12:02:35;;;;;;;21.08;14.38;;;;;;;;;;4998410;28;20175;-58
2022/01/10 12:05:02;;;;;;;28.00;17.92;;;;;;;;;;4998801;28;20183;-57
2022/01/10 12:07:28;;;;;;;22.23;14.63;;;;;;;;;;4996332;28;20176;-58
2022/01/10 12:09:54;;;;;;;21.13;13.65;;;;;;;;;;4999504;28;20579;-57
2022/01/10 12:12:20;;;;;;;20.55;12.55;;;;;;;;;;5003934;28;20175;-57
2022/01/10 12:14:46;;;;;;;18.30;11.95;;;;;;;;;;5004562;28;20707;-58
2022/01/10 12:17:13;;;;;;;19.77;12.77;;;;;;;;;;4997978;28;20186;-58
2022/01/10 12:19:42;;;;;;;22.45;12.88;;;;;;;;;;4999933;28;20774;-58
2022/01/10 12:22:08;;;;;;;34.15;21.17;;;;;;;;;;4996475;28;21116;-58
2022/01/10 12:24:35;;;;;;;28.17;18.30;;;;;;;;;;4993120;28;20176;-57
2022/01/10 12:27:01;;;;;;;30.20;19.15;;;;;;;;;;4994927;28;20191;-57
2022/01/10 12:29:28;;;;;;;18.98;12.68;;;;;;;;;;4999453;28;20227;-57
2022/01/10 12:31:53;;;;;;;31.35;17.73;;;;;;;;;;5001725;28;20215;-58
2022/01/10 12:34:18;;;;;;;20.33;13.80;;;;;;;;;;5001003;28;20258;-57
2022/01/10 12:36:46;;;;;;;21.73;13.50;;;;;;;;;;4998911;28;20258;-59
2022/01/10 12:39:17;;;;;;;20.23;11.73;;;;;;;;;;4998417;28;20773;-57
2022/01/10 12:41:43;;;;;;;19.05;12.10;;;;;;;;;;5000621;28;20179;-57
2022/01/10 12:44:08;;;;;;;26.27;18.30;;;;;;;;;;4999908;28;20257;-57
2022/01/10 12:46:33;;;;;;;20.25;12.63;;;;;;;;;;4997596;28;20214;-58
2022/01/10 12:49:05;;;;;;;19.60;13.80;;;;;;;;;;5000182;28;20215;-58
2022/01/10 12:51:42;;;;;;;28.20;18.13;;;;;;;;;;5002037;28;20278;-58
2022/01/10 12:54:11;;;;;;;43.10;29.90;;;;;;;;;;4997903;28;20574;-58
2022/01/10 12:56:37;;;;;;;17.60;12.80;;;;;;;;;;4993264;28;20270;-57
2022/01/10 12:59:03;;;;;;;29.92;18.50;;;;;;;;;;4977754;28;20275;-58
2022/01/10 13:01:28;;;;;;;15.98;10.80;;;;;;;;;;4979875;28;20207;-58
2022/01/10 13:03:55;;;;;;;15.20;10.68;;;;;;;;;;4988739;28;20687;-57
2022/01/10 13:06:21;;;;;;;19.63;14.65;;;;;;;;;;5000644;28;20205;-57
2022/01/10 13:08:47;;;;;;;17.83;12.98;;;;;;;;;;4999553;28;20652;-58
2022/01/10 13:11:17;;;;;;;15.50;10.75;;;;;;;;;;4996686;28;20595;-57
2022/01/10 13:13:44;;;;;;;15.60;10.52;;;;;;;;;;5003102;28;20174;-58
2022/01/10 13:16:25;;;;;;;14.70;10.50;;;;;;;;;;5005490;28;20197;-57
2022/01/10 13:18:59;;;;;;;15.50;10.52;;;;;;;;;;4988125;28;20176;-56
2022/01/10 13:21:28;;;;;;;16.30;11.27;;;;;;;;;;4997784;28;20175;-56
2022/01/10 13:24:12;;;;;;;14.52;10.40;;;;;;;;;;5001066;28;20573;-56
2022/01/10 13:26:56;;;;;;;12.35;8.80;;;;;;;;;;5002031;28;20175;-57
2022/01/10 13:29:38;;;;;;;18.60;11.57;;;;;;;;;;5002446;28;20660;-56
2022/01/10 13:32:13;;;;;;;13.57;9.55;;;;;;;;;;4989630;28;20195;-57
2022/01/10 13:34:38;;;;;;;14.98;10.23;;;;;;;;;;5000949;28;20194;-58
2022/01/10 13:37:04;;;;;;;17.40;11.52;;;;;;;;;;4993268;28;20187;-57
2022/01/10 13:39:29;;;;;;;12.25;9.82;;;;;;;;;;5000572;28;20191;-57
2022/01/10 13:41:59;;;;;;;12.70;9.57;;;;;;;;;;4996910;28;20219;-57
2022/01/10 13:44:25;;;;;;;10.00;8.02;;;;;;;;;;4999336;28;20175;-57
2022/01/10 13:47:05;;;;;;;12.48;8.68;;;;;;;;;;5000347;28;20201;-57
2022/01/10 13:49:30;;;;;;;15.40;9.40;;;;;;;;;;4998396;28;20177;-57
2022/01/10 13:52:13;;;;;;;10.38;8.60;;;;;;;;;;4997951;28;20207;-57
2022/01/10 13:54:38;;;;;;;12.60;9.57;;;;;;;;;;4990804;28;20246;-57
2022/01/10 13:57:17;;;;;;;13.25;8.90;;;;;;;;;;5007068;28;20656;-56
2022/01/10 13:59:42;;;;;;;11.77;8.75;;;;;;;;;;5003300;28;20187;-58
2022/01/10 14:02:09;;;;;;;15.90;10.63;;;;;;;;;;4996134;28;20178;-57
2022/01/10 14:04:35;;;;;;;17.15;10.45;;;;;;;;;;4998115;28;20203;-57
2022/01/10 14:07:06;;;;;;;25.38;14.00;;;;;;;;;;5000510;28;20229;-57
2022/01/10 14:09:33;;;;;;;25.88;16.27;;;;;;;;;;5000098;28;20739;-58
2022/01/10 14:11:58;;;;;;;16.88;11.40;;;;;;;;;;4996632;28;20321;-57
2022/01/10 14:14:27;;;;;;;48.28;33.67;;;;;;;;;;4999183;28;20591;-59
2022/01/10 14:16:55;;;;;;;38.78;26.45;;;;;;;;;;5001163;28;20183;-58
2022/01/10 14:19:21;;;;;;;23.27;15.43;;;;;;;;;;4996286;28;20180;-57
2022/01/10 14:21:47;;;;;;;20.75;14.27;;;;;;;;;;4995375;28;20175;-57
2022/01/10 14:24:12;;;;;;;26.60;17.60;;;;;;;;;;4977661;28;20180;-57
2022/01/10 14:26:38;;;;;;;22.55;14.25;;;;;;;;;;4979107;28;21146;-57
2022/01/10 14:29:04;;;;;;;19.48;12.98;;;;;;;;;;4997938;28;20188;-57